createdAt,value
2023-01-17T00:01:24.733Z,4.77
2023-01-17T00:04:50.046Z,4.75
2023-01-17T00:08:15.441Z,4.78
2023-01-17T00:11:40.764Z,4.78
2023-01-17T00:15:06.022Z,4.8
2023-01-17T00:18:31.331Z,4.83
2023-01-17T00:21:56.622Z,4.88
2023-01-17T00:25:21.920Z,4.88
2023-01-17T00:28:47.297Z,4.86
2023-01-17T00:32:12.598Z,4.81
2023-01-17T00:35:37.939Z,4.79
2023-01-17T00:39:03.233Z,4.79
2023-01-17T00:42:28.508Z,4.79
2023-01-17T00:45:53.844Z,4.83
2023-01-17T00:49:19.115Z,4.82
2023-01-17T00:52:44.387Z,4.81
2023-01-17T00:56:09.662Z,4.79
2023-01-17T00:59:34.913Z,4.79
2023-01-17T01:03:00.233Z,4.79
2023-01-17T01:06:25.472Z,4.8
2023-01-17T01:09:50.817Z,4.79
2023-01-17T01:13:16.105Z,4.78
2023-01-17T01:16:41.388Z,4.76
2023-01-17T01:20:06.762Z,4.75
2023-01-17T01:23:31.972Z,4.78
2023-01-17T01:26:57.276Z,4.78
2023-01-17T01:30:22.541Z,4.79
2023-01-17T01:33:48.519Z,4.78
2023-01-17T01:37:13.842Z,4.79
2023-01-17T01:40:39.121Z,4.79
2023-01-17T01:44:04.407Z,4.76
2023-01-17T01:47:29.692Z,4.76
2023-01-17T01:50:54.985Z,4.78
2023-01-17T01:54:20.293Z,4.78
2023-01-17T01:57:45.545Z,4.74
2023-01-17T02:01:11.052Z,4.69
2023-01-17T02:04:36.170Z,4.64
2023-01-17T02:08:01.488Z,4.6
2023-01-17T02:11:26.770Z,4.58
2023-01-17T02:14:52.043Z,4.6
2023-01-17T02:18:17.364Z,4.6
2023-01-17T02:21:42.634Z,4.59
2023-01-17T02:25:07.955Z,4.56
2023-01-17T02:28:33.355Z,4.54
2023-01-17T02:31:58.535Z,4.55
2023-01-17T02:35:23.875Z,4.54
2023-01-17T02:38:49.170Z,4.58
2023-01-17T02:42:14.403Z,4.6
2023-01-17T02:45:39.822Z,4.61
2023-01-17T02:49:04.971Z,4.65
2023-01-17T02:52:30.229Z,4.62
2023-01-17T02:55:55.521Z,4.63
2023-01-17T02:59:20.808Z,4.65
2023-01-17T03:02:46.145Z,4.63
2023-01-17T03:06:11.336Z,4.62
2023-01-17T03:09:36.614Z,4.6
2023-01-17T03:13:01.923Z,4.6
2023-01-17T03:16:27.218Z,4.61
2023-01-17T03:19:52.500Z,4.64
2023-01-17T03:23:17.764Z,4.62
2023-01-17T03:26:43.071Z,4.66
2023-01-17T03:30:08.355Z,4.66
2023-01-17T03:33:33.618Z,4.69
2023-01-17T03:36:58.914Z,4.72
2023-01-17T03:40:24.161Z,4.73
2023-01-17T03:43:49.469Z,4.72
2023-01-17T03:47:14.717Z,4.65
2023-01-17T03:50:39.998Z,4.64
2023-01-17T03:54:05.265Z,4.69
2023-01-17T03:57:30.500Z,4.73
2023-01-17T04:00:55.916Z,4.72
2023-01-17T04:04:21.034Z,4.7
2023-01-17T04:07:46.296Z,4.69
2023-01-17T04:11:11.585Z,4.69
2023-01-17T04:14:36.805Z,4.63
2023-01-17T04:18:02.052Z,4.61
2023-01-17T04:21:27.321Z,4.55
2023-01-17T04:24:52.550Z,4.52
2023-01-17T04:28:17.985Z,4.46
2023-01-17T04:31:43.253Z,4.43
2023-01-17T04:35:08.463Z,4.42
2023-01-17T04:38:34.272Z,4.41
2023-01-17T04:41:59.528Z,4.39
2023-01-17T04:45:24.812Z,4.37
2023-01-17T04:48:50.068Z,4.38
2023-01-17T04:52:15.317Z,4.38
2023-01-17T04:55:40.592Z,4.33
2023-01-17T04:59:05.827Z,4.3
2023-01-17T05:02:31.154Z,4.27
2023-01-17T05:05:56.317Z,4.29
2023-01-17T05:09:21.616Z,4.31
2023-01-17T05:12:47.777Z,4.32
2023-01-17T05:16:12.143Z,4.34
2023-01-17T05:19:37.522Z,4.37
2023-01-17T05:23:02.792Z,4.39
2023-01-17T05:26:28.143Z,4.37
2023-01-17T05:29:53.485Z,4.38
2023-01-17T05:33:18.817Z,4.33
2023-01-17T05:36:44.086Z,4.29
2023-01-17T05:40:09.341Z,4.27
2023-01-17T05:43:34.599Z,4.28
2023-01-17T05:46:59.858Z,4.37
2023-01-17T05:50:25.147Z,4.53
2023-01-17T05:53:50.412Z,4.61
2023-01-17T05:57:15.637Z,4.54
2023-01-17T06:00:40.888Z,4.49
2023-01-17T06:04:06.126Z,4.45
2023-01-17T06:07:31.400Z,4.36
2023-01-17T06:10:56.666Z,4.35
2023-01-17T06:14:21.959Z,4.39
2023-01-17T06:17:47.220Z,4.43
2023-01-17T06:21:12.652Z,4.5
2023-01-17T06:24:38.157Z,4.62
2023-01-17T06:28:03.477Z,4.71
2023-01-17T06:31:28.791Z,4.69
2023-01-17T06:34:54.020Z,4.6
2023-01-17T06:38:19.298Z,4.59
2023-01-17T06:41:44.527Z,4.5
2023-01-17T06:45:09.826Z,4.41
2023-01-17T06:48:35.050Z,4.4
2023-01-17T06:52:00.296Z,4.44
2023-01-17T06:55:25.547Z,4.41
2023-01-17T06:58:50.779Z,4.37
2023-01-17T07:02:16.062Z,4.37
2023-01-17T07:05:41.305Z,4.29
2023-01-17T07:09:06.557Z,4.27
2023-01-17T07:12:31.844Z,4.35
2023-01-17T07:15:57.075Z,4.36
2023-01-17T07:19:22.370Z,4.44
2023-01-17T07:22:47.597Z,4.53
2023-01-17T07:26:12.864Z,4.53
2023-01-17T07:29:38.116Z,4.56
2023-01-17T07:33:03.367Z,4.6
2023-01-17T07:36:28.665Z,4.6
2023-01-17T07:39:53.906Z,4.63
2023-01-17T07:43:19.185Z,4.64
2023-01-17T07:46:44.492Z,4.64
2023-01-17T07:50:09.693Z,4.62
2023-01-17T07:53:34.956Z,4.64
2023-01-17T07:57:00.195Z,4.64
2023-01-17T08:00:25.507Z,4.66
2023-01-17T08:03:50.780Z,4.68
2023-01-17T08:07:15.989Z,4.72
2023-01-17T08:10:41.272Z,4.74
2023-01-17T08:14:06.503Z,4.73
2023-01-17T08:17:32.005Z,4.78
2023-01-17T08:20:57.319Z,4.78
2023-01-17T08:24:22.614Z,4.75
2023-01-17T08:27:47.923Z,4.74
2023-01-17T08:31:13.202Z,4.7
2023-01-17T08:34:39.153Z,4.69
2023-01-17T08:38:04.416Z,4.7
2023-01-17T08:41:30.212Z,4.68
2023-01-17T08:44:55.556Z,4.61
2023-01-17T08:48:20.835Z,4.55
2023-01-17T08:51:46.988Z,4.51
2023-01-17T08:55:12.222Z,4.45
2023-01-17T08:58:37.486Z,4.39
2023-01-17T09:02:03.025Z,4.36
2023-01-17T09:05:28.094Z,4.39
2023-01-17T09:08:53.327Z,4.41
2023-01-17T09:12:18.577Z,4.43
2023-01-17T09:15:43.833Z,4.47
2023-01-17T09:19:09.124Z,4.58
2023-01-17T09:22:34.327Z,4.62
2023-01-17T09:25:59.658Z,4.7
2023-01-17T09:29:24.889Z,4.81
2023-01-17T09:32:50.189Z,4.9
2023-01-17T09:36:15.513Z,4.9
2023-01-17T09:39:40.778Z,4.94
2023-01-17T09:43:06.076Z,4.94
2023-01-17T09:46:31.426Z,4.92
2023-01-17T09:49:56.752Z,4.93
2023-01-17T09:53:22.092Z,4.94
2023-01-17T09:56:47.363Z,4.94
2023-01-17T10:00:12.700Z,4.85
2023-01-17T10:03:38.104Z,4.82
2023-01-17T10:07:03.275Z,4.95
2023-01-17T10:10:28.584Z,5.07
2023-01-17T10:13:53.839Z,5.14
2023-01-17T10:17:19.099Z,5.22
2023-01-17T10:20:44.382Z,5.24
2023-01-17T10:24:09.635Z,5.27
2023-01-17T10:27:35.009Z,5.36
2023-01-17T10:31:00.329Z,5.51
2023-01-17T10:34:25.666Z,5.66
2023-01-17T10:37:50.999Z,5.67
2023-01-17T10:41:16.298Z,5.71
2023-01-17T10:44:41.632Z,5.78
2023-01-17T10:48:06.889Z,5.81
2023-01-17T10:51:32.194Z,5.83
2023-01-17T10:54:57.564Z,5.88
2023-01-17T10:58:22.815Z,5.88
2023-01-17T11:01:50.333Z,5.84
2023-01-17T11:05:14.763Z,5.76
2023-01-17T11:08:40.003Z,5.69
2023-01-17T11:12:05.224Z,5.68
2023-01-17T11:15:30.508Z,5.67
2023-01-17T11:18:55.802Z,5.64
2023-01-17T11:22:21.043Z,5.61
2023-01-17T11:25:46.316Z,5.56
2023-01-17T11:29:11.564Z,5.56
2023-01-17T11:32:36.812Z,5.59
2023-01-17T11:36:02.087Z,5.63
2023-01-17T11:39:27.316Z,5.74
2023-01-17T11:42:52.581Z,5.73
2023-01-17T11:46:17.936Z,5.75
2023-01-17T11:49:43.169Z,5.75
2023-01-17T11:53:08.475Z,5.77
2023-01-17T11:56:33.716Z,5.97
2023-01-17T11:59:58.995Z,6.19
2023-01-17T12:03:24.263Z,6.35
2023-01-17T12:06:57.458Z,6.48
2023-01-17T12:10:14.884Z,6.56
2023-01-17T12:13:40.042Z,6.57
2023-01-17T12:17:05.298Z,6.71
2023-01-17T12:20:30.557Z,6.68
2023-01-17T12:23:55.838Z,6.71
2023-01-17T12:27:21.164Z,6.85
2023-01-17T12:30:46.430Z,6.97
2023-01-17T12:34:11.684Z,7.03
2023-01-17T12:37:37.121Z,7.01
2023-01-17T12:41:02.360Z,6.97
2023-01-17T12:44:27.784Z,6.92
2023-01-17T12:47:53.031Z,6.89
2023-01-17T12:51:18.301Z,6.87
2023-01-17T12:54:43.558Z,6.82
2023-01-17T12:58:08.798Z,6.78
2023-01-17T13:01:34.159Z,6.67
2023-01-17T13:04:59.420Z,6.64
2023-01-17T13:08:24.618Z,6.57
2023-01-17T13:11:49.850Z,6.51
2023-01-17T13:15:15.114Z,6.48
2023-01-17T13:18:40.416Z,6.45
2023-01-17T13:22:05.681Z,6.49
2023-01-17T13:25:30.959Z,6.48
2023-01-17T13:28:56.251Z,6.58
2023-01-17T13:32:21.511Z,6.66
2023-01-17T13:35:46.783Z,6.68
2023-01-17T13:39:12.014Z,6.63
2023-01-17T13:42:37.289Z,6.43
2023-01-17T13:46:02.582Z,6.35
2023-01-17T13:49:27.807Z,6.34
2023-01-17T13:52:53.112Z,6.27
2023-01-17T13:56:18.344Z,6.26
2023-01-17T13:59:43.602Z,6.24
2023-01-17T14:03:08.876Z,6.26
2023-01-17T14:06:34.124Z,6.31
2023-01-17T14:09:59.400Z,6.34
2023-01-17T14:13:24.664Z,6.39
2023-01-17T14:16:49.916Z,6.39
2023-01-17T14:20:15.157Z,6.37
2023-01-17T14:23:40.394Z,6.32
2023-01-17T14:27:05.692Z,6.3
2023-01-17T14:30:30.955Z,6.3
2023-01-17T15:04:38.507Z,3.27
2023-01-17T15:08:03.689Z,4.18
2023-01-17T15:11:28.955Z,4.39
2023-01-17T15:14:54.182Z,4.51
2023-01-17T15:18:19.438Z,4.59
2023-01-17T15:21:44.840Z,4.65
2023-01-17T15:25:10.220Z,4.68
2023-01-17T15:28:35.547Z,4.74
2023-01-17T15:32:00.802Z,4.78
2023-01-17T15:35:26.175Z,4.87
2023-01-17T15:38:51.439Z,4.86
2023-01-17T15:42:16.658Z,4.88
2023-01-17T15:45:41.962Z,4.9
2023-01-17T15:49:07.148Z,4.93
2023-01-17T15:52:32.379Z,4.87
2023-01-17T15:55:57.909Z,4.84
2023-01-17T15:59:22.865Z,4.82
2023-01-17T16:02:48.922Z,4.81
2023-01-17T16:06:14.224Z,4.78
2023-01-17T16:09:39.518Z,4.74
2023-01-17T16:13:28.762Z,4.69
2023-01-17T16:16:54.227Z,4.62
2023-01-17T16:20:19.575Z,4.6
2023-01-17T16:23:44.944Z,4.58
2023-01-17T16:27:10.230Z,4.53
2023-01-17T16:30:35.608Z,4.48
2023-01-17T16:34:00.961Z,4.45
2023-01-17T16:37:26.265Z,4.43
2023-01-17T16:40:51.647Z,4.42
2023-01-17T16:44:16.976Z,4.39
2023-01-17T16:47:42.354Z,4.38
2023-01-17T16:51:07.633Z,4.35
2023-01-17T16:54:32.953Z,4.35
2023-01-17T16:57:58.361Z,4.29
2023-01-17T17:01:23.843Z,4.13
2023-01-17T17:04:49.022Z,3.98
2023-01-17T17:08:14.408Z,3.98
2023-01-17T17:11:39.662Z,3.97
2023-01-17T17:15:05.120Z,3.91
2023-01-17T17:18:30.497Z,3.79
2023-01-17T17:21:55.881Z,3.75
2023-01-17T17:25:21.197Z,3.67
2023-01-17T17:28:46.501Z,3.56
2023-01-17T17:32:11.830Z,3.5
2023-01-17T17:35:37.149Z,3.42
2023-01-17T17:39:02.564Z,3.36
2023-01-17T17:42:27.877Z,3.3
2023-01-17T17:45:53.157Z,3.24
2023-01-17T17:49:18.473Z,3.26
2023-01-17T17:52:43.754Z,3.32
2023-01-17T17:56:09.020Z,3.35
2023-01-17T17:59:34.285Z,3.36
2023-01-17T18:02:59.518Z,3.35
2023-01-17T18:06:24.831Z,3.35
2023-01-17T18:09:50.171Z,3.35
2023-01-17T18:13:15.465Z,3.33
2023-01-17T18:16:40.697Z,3.34
2023-01-17T18:20:07.716Z,3.3
2023-01-17T18:23:31.416Z,3.28
2023-01-17T18:26:56.781Z,3.29
2023-01-17T18:30:22.083Z,3.31
2023-01-17T18:33:47.328Z,3.34
2023-01-17T18:37:12.628Z,3.33
2023-01-17T18:40:37.963Z,3.28
2023-01-17T18:44:03.240Z,3.28
2023-01-17T18:47:28.529Z,3.29
2023-01-17T18:50:53.802Z,3.28
2023-01-17T18:54:19.175Z,3.33
2023-01-17T18:57:44.493Z,3.38
2023-01-17T19:01:09.917Z,3.43
2023-01-17T19:04:35.043Z,3.45
2023-01-17T19:08:00.303Z,3.47
2023-01-17T19:11:25.604Z,3.47
2023-01-17T19:14:50.862Z,3.48
2023-01-17T19:18:16.179Z,3.53
2023-01-17T19:21:41.463Z,3.57
2023-01-17T19:25:06.719Z,3.6
2023-01-17T19:28:33.180Z,3.63
2023-01-17T19:31:57.286Z,3.66
2023-01-17T19:35:22.815Z,3.72
2023-01-17T19:39:02.834Z,3.76
2023-01-17T19:42:13.062Z,3.78
2023-01-17T19:45:38.345Z,3.77
2023-01-17T19:49:03.565Z,3.76
2023-01-17T19:52:28.831Z,3.67
2023-01-17T19:55:54.155Z,3.58
2023-01-17T19:59:19.374Z,3.55
2023-01-17T20:02:44.636Z,3.53
2023-01-17T20:06:09.989Z,3.49
2023-01-17T20:09:35.277Z,3.47
2023-01-17T20:13:00.584Z,3.46
2023-01-17T20:16:25.835Z,3.46
2023-01-17T20:19:51.051Z,3.41
2023-01-17T20:23:16.333Z,3.4
2023-01-17T20:26:41.587Z,3.45
2023-01-17T20:30:19.148Z,3.46
2023-01-17T20:33:32.085Z,3.45
2023-01-17T20:36:57.315Z,3.47
2023-01-17T20:40:22.590Z,3.48
2023-01-17T20:43:47.843Z,3.52
2023-01-17T20:47:13.702Z,3.59
2023-01-17T20:50:38.350Z,3.63
2023-01-17T20:54:03.609Z,3.67
2023-01-17T20:57:28.824Z,3.72
2023-01-17T21:00:54.145Z,3.75
2023-01-17T21:04:19.383Z,3.78
2023-01-17T21:07:44.592Z,3.81
2023-01-17T21:11:09.859Z,3.84
2023-01-17T21:14:35.078Z,3.87
2023-01-17T21:18:00.335Z,3.89
2023-01-17T21:21:25.621Z,3.93
2023-01-17T21:24:50.821Z,3.99
2023-01-17T21:28:16.118Z,4
2023-01-17T21:31:41.381Z,3.97
2023-01-17T21:35:06.624Z,3.92
2023-01-17T21:38:31.914Z,3.94
2023-01-17T21:41:57.174Z,3.91
2023-01-17T21:45:22.411Z,3.87
2023-01-17T21:48:47.695Z,3.82
2023-01-17T21:52:13.018Z,3.78
2023-01-17T21:55:38.294Z,3.7
2023-01-17T21:59:03.484Z,3.67
2023-01-17T22:02:28.771Z,3.69
2023-01-17T22:05:53.994Z,3.71
2023-01-17T22:09:19.260Z,3.73
2023-01-17T22:12:44.543Z,3.76
2023-01-17T22:16:09.777Z,3.77
2023-01-17T22:19:35.008Z,3.78
2023-01-17T22:23:00.284Z,3.78
2023-01-17T22:26:25.524Z,3.73
2023-01-17T22:29:50.795Z,3.67
2023-01-17T22:33:16.040Z,3.62
2023-01-17T22:36:41.310Z,3.6
2023-01-17T22:40:06.537Z,3.53
2023-01-17T22:43:31.808Z,3.44
2023-01-17T22:46:57.166Z,3.36
2023-01-17T22:50:22.425Z,3.32
2023-01-17T22:53:47.671Z,3.27
2023-01-17T22:57:12.898Z,3.2
2023-01-17T23:00:38.130Z,3.17
2023-01-17T23:04:03.406Z,3.16
2023-01-17T23:07:29.471Z,3.16
2023-01-17T23:10:54.713Z,3.15
2023-01-17T23:14:19.942Z,3.13
2023-01-17T23:17:45.174Z,3.14
2023-01-17T23:21:10.452Z,3.12
2023-01-17T23:24:35.662Z,3.1
2023-01-17T23:28:00.941Z,3.14
2023-01-17T23:31:26.220Z,3.15
2023-01-17T23:34:51.468Z,3.19
2023-01-17T23:38:16.766Z,3.26
2023-01-17T23:41:41.978Z,3.31
2023-01-17T23:45:07.204Z,3.41
2023-01-17T23:48:32.467Z,3.48
2023-01-17T23:51:57.693Z,3.54
2023-01-17T23:55:22.969Z,3.55
2023-01-17T23:58:48.170Z,3.53
